Time;durP1;ratioP1;P1;durP2;ratioP2;P2;SDS_P1;SDS_P2;PMS_P1;PMS_P2;Temp;Humidity;BMP_temperature;BMP_pressure;BME280_temperature;BME280_humidity;BME280_pressure;Samples;Min_cycle;Max_cycle;Signal;HPM_P1;HPM_P2
2021/03/30 00:02:13;;;;;;;19.47;11.43;;;;;;;;;;5097403;28;20793;-72
2021/03/30 00:04:41;;;;;;;20.40;11.40;;;;;;;;;;5098605;28;20491;-72
2021/03/30 00:07:08;;;;;;;23.90;11.00;;;;;;;;;;5115256;27;20520;-72
2021/03/30 00:09:35;;;;;;;11.80;8.87;;;;;;;;;;5117166;27;20897;-71
2021/03/30 00:12:04;;;;;;;23.77;10.33;;;;;;;;;;5117765;27;20463;-72
2021/03/30 00:14:31;;;;;;;15.30;8.90;;;;;;;;;;5114423;27;20490;-72
2021/03/30 00:17:01;;;;;;;13.30;9.23;;;;;;;;;;5096772;28;20460;-72
2021/03/30 00:19:30;;;;;;;18.23;9.73;;;;;;;;;;5097012;28;20448;-72
2021/03/30 00:21:58;;;;;;;20.00;10.83;;;;;;;;;;5097123;28;20468;-73
2021/03/30 00:24:26;;;;;;;14.83;9.73;;;;;;;;;;5110353;27;20490;-73
2021/03/30 00:26:54;;;;;;;18.50;10.07;;;;;;;;;;5117169;27;20462;-72
2021/03/30 00:29:22;;;;;;;15.57;9.53;;;;;;;;;;5116984;27;20525;-72
2021/03/30 00:31:54;;;;;;;15.10;10.43;;;;;;;;;;5114690;28;20454;-69
2021/03/30 00:34:21;;;;;;;15.73;9.60;;;;;;;;;;5116332;28;20537;-72
2021/03/30 00:36:50;;;;;;;15.17;10.17;;;;;;;;;;5115896;28;20443;-72
2021/03/30 00:39:18;;;;;;;21.40;10.70;;;;;;;;;;5107225;27;20478;-72
2021/03/30 00:41:45;;;;;;;18.50;11.00;;;;;;;;;;5116969;27;20485;-72
2021/03/30 00:44:16;;;;;;;17.13;10.50;;;;;;;;;;5114893;28;20483;-72
2021/03/30 00:46:51;;;;;;;16.23;9.90;;;;;;;;;;5116125;27;20470;-72
2021/03/30 00:49:18;;;;;;;18.80;12.07;;;;;;;;;;5116289;27;20525;-72
2021/03/30 00:51:46;;;;;;;18.60;11.10;;;;;;;;;;5116183;28;20447;-71
2021/03/30 00:54:14;;;;;;;17.47;11.50;;;;;;;;;;5116418;28;20451;-72
2021/03/30 00:56:42;;;;;;;17.57;10.40;;;;;;;;;;5116043;28;20835;-72
2021/03/30 00:59:10;;;;;;;17.10;10.90;;;;;;;;;;5116035;28;20447;-72
2021/03/30 01:01:37;;;;;;;19.13;10.30;;;;;;;;;;5118902;27;20532;-71
2021/03/30 01:04:04;;;;;;;16.07;10.53;;;;;;;;;;5119491;27;20491;-74
2021/03/30 01:06:34;;;;;;;13.33;10.07;;;;;;;;;;5120150;27;20451;-72
2021/03/30 01:09:13;;;;;;;12.83;9.70;;;;;;;;;;5103249;28;20471;-71
2021/03/30 01:11:45;;;;;;;15.20;10.70;;;;;;;;;;5100065;28;20585;-71
2021/03/30 01:14:20;;;;;;;18.83;10.60;;;;;;;;;;5099696;28;20475;-71
2021/03/30 01:16:51;;;;;;;18.53;12.03;;;;;;;;;;5101192;28;20464;-72
2021/03/30 01:19:29;;;;;;;18.87;10.73;;;;;;;;;;5104170;28;20892;-72
2021/03/30 01:22:05;;;;;;;14.47;10.40;;;;;;;;;;5099385;28;20483;-72
2021/03/30 01:24:36;;;;;;;18.87;10.20;;;;;;;;;;5099622;28;20490;-71
2021/03/30 01:27:05;;;;;;;14.43;9.90;;;;;;;;;;5099424;28;20452;-72
2021/03/30 01:29:40;;;;;;;17.00;9.70;;;;;;;;;;5098854;28;20733;-71
2021/03/30 01:32:10;;;;;;;15.03;11.13;;;;;;;;;;5101508;27;20460;-71
2021/03/30 01:34:37;;;;;;;20.17;12.07;;;;;;;;;;5110156;28;20451;-71
2021/03/30 01:37:05;;;;;;;16.33;9.93;;;;;;;;;;5118288;27;20455;-72
2021/03/30 01:39:32;;;;;;;20.60;10.30;;;;;;;;;;5099567;28;20445;-71
2021/03/30 01:42:00;;;;;;;25.40;11.73;;;;;;;;;;5098966;28;20459;-72
2021/03/30 01:44:27;;;;;;;20.70;10.73;;;;;;;;;;5099244;28;20499;-72
2021/03/30 01:46:56;;;;;;;15.97;10.87;;;;;;;;;;5101847;28;20456;-72
2021/03/30 01:49:24;;;;;;;14.93;9.50;;;;;;;;;;5118308;27;20458;-72
2021/03/30 01:51:51;;;;;;;12.80;8.80;;;;;;;;;;5101203;28;20532;-72
2021/03/30 01:54:19;;;;;;;18.93;9.97;;;;;;;;;;5107092;27;20452;-72
2021/03/30 01:56:46;;;;;;;19.90;10.37;;;;;;;;;;5099420;28;20719;-72
2021/03/30 01:59:15;;;;;;;16.40;9.50;;;;;;;;;;5109261;28;20451;-72
2021/03/30 02:01:45;;;;;;;22.77;10.60;;;;;;;;;;5132019;27;20531;-71
2021/03/30 02:04:13;;;;;;;15.93;9.70;;;;;;;;;;5139512;27;20550;-71
2021/03/30 02:06:41;;;;;;;15.93;9.43;;;;;;;;;;5138859;27;20496;-71
2021/03/30 02:09:12;;;;;;;16.00;11.07;;;;;;;;;;5102016;28;20459;-72
2021/03/30 02:11:44;;;;;;;17.73;9.70;;;;;;;;;;5117549;27;20455;-71
2021/03/30 02:14:13;;;;;;;13.30;8.80;;;;;;;;;;5099870;28;20852;-72
2021/03/30 02:16:42;;;;;;;14.90;9.30;;;;;;;;;;5100821;28;20461;-71
2021/03/30 02:19:13;;;;;;;14.57;10.10;;;;;;;;;;5098327;28;20447;-71
2021/03/30 02:21:43;;;;;;;14.33;9.40;;;;;;;;;;5099773;28;20547;-72
2021/03/30 02:24:11;;;;;;;15.60;9.67;;;;;;;;;;5107227;27;20480;-72
2021/03/30 02:26:39;;;;;;;16.00;9.00;;;;;;;;;;5099475;27;20452;-72
2021/03/30 02:29:08;;;;;;;20.87;9.53;;;;;;;;;;5109949;28;20458;-72
2021/03/30 02:31:37;;;;;;;17.53;9.57;;;;;;;;;;5099932;28;20456;-72
2021/03/30 02:34:06;;;;;;;18.33;10.10;;;;;;;;;;5098203;28;20456;-71
2021/03/30 02:36:34;;;;;;;17.40;9.60;;;;;;;;;;5101437;27;20883;-72
2021/03/30 02:39:06;;;;;;;19.40;10.37;;;;;;;;;;5104167;28;20455;-72
2021/03/30 02:41:34;;;;;;;15.47;10.70;;;;;;;;;;5118037;27;20474;-72
2021/03/30 02:44:02;;;;;;;19.97;11.07;;;;;;;;;;5119099;27;20520;-72
2021/03/30 02:46:30;;;;;;;25.80;12.07;;;;;;;;;;5118790;27;20772;-72
2021/03/30 02:48:57;;;;;;;17.43;11.57;;;;;;;;;;5118980;27;20731;-72
2021/03/30 02:51:27;;;;;;;20.40;12.30;;;;;;;;;;5119006;27;20476;-71
2021/03/30 02:53:55;;;;;;;19.73;11.30;;;;;;;;;;5117856;27;20512;-71
2021/03/30 02:56:23;;;;;;;15.60;10.43;;;;;;;;;;5118311;27;20728;-73
2021/03/30 02:58:55;;;;;;;20.50;11.30;;;;;;;;;;5118229;27;20443;-73
2021/03/30 03:01:25;;;;;;;20.53;11.30;;;;;;;;;;5118442;27;20464;-72
2021/03/30 03:03:53;;;;;;;17.97;11.57;;;;;;;;;;5106175;27;20480;-72
2021/03/30 03:06:20;;;;;;;16.60;12.27;;;;;;;;;;5110607;27;20459;-73
2021/03/30 03:08:48;;;;;;;21.93;12.63;;;;;;;;;;5118361;27;20466;-73
2021/03/30 03:11:16;;;;;;;20.67;12.40;;;;;;;;;;5117976;27;20754;-73
2021/03/30 03:13:46;;;;;;;16.10;12.20;;;;;;;;;;5118993;27;20843;-71
2021/03/30 03:16:13;;;;;;;18.93;11.10;;;;;;;;;;5117072;27;20477;-73
2021/03/30 03:18:41;;;;;;;21.47;12.27;;;;;;;;;;5116018;27;20733;-73
2021/03/30 03:21:09;;;;;;;20.67;11.23;;;;;;;;;;5118219;27;20851;-72
2021/03/30 03:23:37;;;;;;;13.63;10.10;;;;;;;;;;5116996;27;20479;-72
2021/03/30 03:26:05;;;;;;;15.83;10.40;;;;;;;;;;5117980;27;20820;-73
2021/03/30 03:28:32;;;;;;;17.63;11.13;;;;;;;;;;5117771;27;20888;-73
2021/03/30 03:31:00;;;;;;;20.63;12.50;;;;;;;;;;5117187;27;20778;-72
2021/03/30 03:33:29;;;;;;;17.13;12.00;;;;;;;;;;5108609;27;20467;-72
2021/03/30 03:36:08;;;;;;;25.20;12.70;;;;;;;;;;5097192;28;20460;-72
2021/03/30 03:38:39;;;;;;;19.87;12.43;;;;;;;;;;5098459;28;20456;-72
2021/03/30 03:41:07;;;;;;;19.93;13.00;;;;;;;;;;5097189;28;20458;-72
2021/03/30 03:43:36;;;;;;;23.47;12.17;;;;;;;;;;5097540;28;20491;-72
2021/03/30 03:46:04;;;;;;;16.23;11.97;;;;;;;;;;5096809;28;20455;-72
2021/03/30 03:48:31;;;;;;;16.37;10.90;;;;;;;;;;5097072;28;20868;-72
2021/03/30 03:50:59;;;;;;;22.90;11.47;;;;;;;;;;5097229;28;20921;-72
2021/03/30 03:53:27;;;;;;;23.20;12.00;;;;;;;;;;5096828;28;20475;-72
2021/03/30 03:55:55;;;;;;;21.57;12.63;;;;;;;;;;5117943;28;20456;-72
2021/03/30 03:58:24;;;;;;;15.73;10.13;;;;;;;;;;5117855;27;20443;-72
2021/03/30 04:01:01;;;;;;;18.97;12.10;;;;;;;;;;5117421;27;20467;-72
2021/03/30 04:03:31;;;;;;;22.87;11.43;;;;;;;;;;5113412;27;20490;-72
2021/03/30 04:06:03;;;;;;;21.23;11.53;;;;;;;;;;5116735;27;20470;-72
2021/03/30 04:08:32;;;;;;;23.90;11.80;;;;;;;;;;5117177;27;20469;-72
2021/03/30 04:11:00;;;;;;;15.00;10.40;;;;;;;;;;5117172;27;20504;-72
2021/03/30 04:13:30;;;;;;;19.40;11.90;;;;;;;;;;5116154;27;20451;-72
2021/03/30 04:15:59;;;;;;;20.43;10.93;;;;;;;;;;5117160;27;20616;-72
2021/03/30 04:18:26;;;;;;;19.13;11.57;;;;;;;;;;5116303;27;20463;-72
2021/03/30 04:20:54;;;;;;;14.77;10.63;;;;;;;;;;5116803;27;20458;-72
2021/03/30 04:23:23;;;;;;;18.73;10.93;;;;;;;;;;5116309;27;20911;-72
2021/03/30 04:25:50;;;;;;;17.17;9.10;;;;;;;;;;5115301;27;20447;-72
2021/03/30 04:28:17;;;;;;;13.43;10.10;;;;;;;;;;5116458;27;20457;-70
2021/03/30 04:30:44;;;;;;;15.97;9.57;;;;;;;;;;5121590;27;20446;-72
2021/03/30 04:33:12;;;;;;;16.20;11.13;;;;;;;;;;5136693;27;20459;-72
2021/03/30 04:35:39;;;;;;;20.90;12.10;;;;;;;;;;5140229;27;20454;-73
2021/03/30 04:38:07;;;;;;;13.87;9.40;;;;;;;;;;5129068;27;20731;-72
2021/03/30 04:40:34;;;;;;;15.00;10.30;;;;;;;;;;5120571;27;20704;-72
2021/03/30 04:43:01;;;;;;;17.20;9.57;;;;;;;;;;5120588;27;20454;-72
2021/03/30 04:45:30;;;;;;;16.10;10.93;;;;;;;;;;5118375;27;20939;-73
2021/03/30 04:47:57;;;;;;;18.40;10.97;;;;;;;;;;5104572;27;20455;-73
2021/03/30 04:50:24;;;;;;;13.47;9.00;;;;;;;;;;5113361;28;20451;-72
2021/03/30 04:52:52;;;;;;;12.80;8.97;;;;;;;;;;5118026;28;20734;-73
2021/03/30 04:55:21;;;;;;;16.30;10.57;;;;;;;;;;5118979;28;20912;-72
2021/03/30 04:57:48;;;;;;;16.43;9.47;;;;;;;;;;5119775;27;20446;-72
2021/03/30 05:00:17;;;;;;;19.30;10.73;;;;;;;;;;5118301;28;20455;-72
2021/03/30 05:02:44;;;;;;;12.60;9.40;;;;;;;;;;5118255;27;20854;-72
2021/03/30 05:05:12;;;;;;;17.83;9.63;;;;;;;;;;5119227;27;20486;-72
2021/03/30 05:07:39;;;;;;;15.80;10.33;;;;;;;;;;5133559;27;20446;-72
2021/03/30 05:10:07;;;;;;;20.13;10.47;;;;;;;;;;5119508;27;20885;-72
2021/03/30 05:12:35;;;;;;;13.27;9.53;;;;;;;;;;5119910;27;21001;-72
2021/03/30 05:15:02;;;;;;;13.50;8.67;;;;;;;;;;5128130;27;20496;-72
2021/03/30 05:17:29;;;;;;;18.43;8.80;;;;;;;;;;5138684;27;20477;-72
2021/03/30 05:19:56;;;;;;;15.03;9.53;;;;;;;;;;5117913;27;20749;-72
2021/03/30 05:22:24;;;;;;;16.20;8.77;;;;;;;;;;5116320;27;20455;-72
2021/03/30 05:24:51;;;;;;;13.47;10.30;;;;;;;;;;5107062;27;20515;-72
2021/03/30 05:27:20;;;;;;;15.27;9.83;;;;;;;;;;5119065;27;20445;-73
2021/03/30 05:29:48;;;;;;;16.97;9.60;;;;;;;;;;5119616;27;20466;-72
2021/03/30 05:32:16;;;;;;;17.60;9.63;;;;;;;;;;5105707;28;20762;-72
2021/03/30 05:34:43;;;;;;;15.30;9.00;;;;;;;;;;5099084;28;20460;-72
2021/03/30 05:37:10;;;;;;;12.90;10.37;;;;;;;;;;5098052;28;21137;-71
2021/03/30 05:39:37;;;;;;;13.27;8.40;;;;;;;;;;5133783;27;20449;-72
2021/03/30 05:42:05;;;;;;;15.60;9.53;;;;;;;;;;5112332;27;20458;-72
2021/03/30 05:44:33;;;;;;;13.30;9.90;;;;;;;;;;5115394;28;20489;-72
2021/03/30 05:47:10;;;;;;;11.77;9.43;;;;;;;;;;5100004;27;20509;-73
2021/03/30 05:49:39;;;;;;;13.17;9.20;;;;;;;;;;5118277;27;20485;-72
2021/03/30 05:52:11;;;;;;;11.40;7.43;;;;;;;;;;5118595;27;20458;-72
2021/03/30 05:54:39;;;;;;;10.87;9.27;;;;;;;;;;5118241;27;20893;-72
2021/03/30 05:57:09;;;;;;;14.20;8.97;;;;;;;;;;5118206;27;20937;-72
2021/03/30 05:59:36;;;;;;;14.17;8.37;;;;;;;;;;5117837;27;20516;-71
2021/03/30 06:02:07;;;;;;;11.93;8.20;;;;;;;;;;5110958;27;20447;-72
2021/03/30 06:04:34;;;;;;;15.93;8.77;;;;;;;;;;5116828;28;20491;-73
2021/03/30 06:07:01;;;;;;;19.97;10.30;;;;;;;;;;5101902;27;20912;-72
2021/03/30 06:09:29;;;;;;;15.50;8.03;;;;;;;;;;5111569;27;20895;-73
2021/03/30 06:11:56;;;;;;;12.93;7.47;;;;;;;;;;5107933;28;20456;-72
2021/03/30 06:14:37;;;;;;;15.27;7.93;;;;;;;;;;5117442;27;20459;-71
2021/03/30 06:17:06;;;;;;;9.80;7.10;;;;;;;;;;5108387;27;20456;-72
2021/03/30 06:19:46;;;;;;;14.57;8.03;;;;;;;;;;5097926;28;20812;-72
2021/03/30 06:22:17;;;;;;;12.30;8.50;;;;;;;;;;5097523;28;20451;-73
2021/03/30 06:24:44;;;;;;;13.37;8.07;;;;;;;;;;5097532;28;20488;-71
2021/03/30 06:27:48;;;;;;;11.37;6.97;;;;;;;;;;5098154;27;20479;-72
2021/03/30 06:30:16;;;;;;;11.40;7.57;;;;;;;;;;5115151;27;20501;-72
2021/03/30 06:32:44;;;;;;;16.27;7.10;;;;;;;;;;5104319;28;20797;-71
2021/03/30 06:35:15;;;;;;;14.20;8.77;;;;;;;;;;5117967;27;20736;-71
2021/03/30 06:37:46;;;;;;;8.33;7.00;;;;;;;;;;5100069;28;20459;-73
2021/03/30 06:40:20;;;;;;;11.53;8.03;;;;;;;;;;5117331;27;20746;-72
2021/03/30 06:42:51;;;;;;;13.07;7.90;;;;;;;;;;5114101;27;20466;-72
2021/03/30 06:45:22;;;;;;;10.23;8.53;;;;;;;;;;5115821;27;20910;-72
2021/03/30 06:47:55;;;;;;;12.43;7.37;;;;;;;;;;5106891;28;20539;-72
2021/03/30 06:50:26;;;;;;;13.33;7.27;;;;;;;;;;5101964;28;20455;-73
2021/03/30 06:52:54;;;;;;;12.87;6.20;;;;;;;;;;5099955;28;20452;-73
2021/03/30 06:55:36;;;;;;;11.67;6.50;;;;;;;;;;5133341;27;20454;-73
2021/03/30 06:58:03;;;;;;;11.93;7.00;;;;;;;;;;5116079;28;20451;-72
2021/03/30 07:00:32;;;;;;;11.00;6.80;;;;;;;;;;5113459;28;20911;-73
2021/03/30 07:03:04;;;;;;;9.40;6.80;;;;;;;;;;5116651;27;20453;-72
2021/03/30 07:05:35;;;;;;;9.80;6.87;;;;;;;;;;5116834;27;20505;-72
2021/03/30 07:08:03;;;;;;;12.73;5.90;;;;;;;;;;5117530;27;20457;-72
2021/03/30 07:10:31;;;;;;;7.40;5.80;;;;;;;;;;5116793;27;20888;-72
2021/03/30 07:12:58;;;;;;;9.90;5.70;;;;;;;;;;5116395;27;20446;-72
2021/03/30 07:15:26;;;;;;;9.30;5.90;;;;;;;;;;5117740;27;20467;-72
2021/03/30 07:18:19;;;;;;;11.50;6.50;;;;;;;;;;5116194;27;20735;-72
2021/03/30 07:20:53;;;;;;;9.53;6.67;;;;;;;;;;5115855;27;20546;-72
2021/03/30 07:23:22;;;;;;;9.23;5.93;;;;;;;;;;5115097;27;20534;-72
2021/03/30 07:25:55;;;;;;;12.53;6.50;;;;;;;;;;5115996;27;20688;-71
2021/03/30 07:28:23;;;;;;;10.93;6.57;;;;;;;;;;5116148;27;21017;-72
2021/03/30 07:30:54;;;;;;;11.13;6.80;;;;;;;;;;5114704;27;20754;-71
2021/03/30 07:33:25;;;;;;;11.43;6.20;;;;;;;;;;5116422;27;20469;-71
2021/03/30 07:35:54;;;;;;;9.17;6.50;;;;;;;;;;5116906;27;20455;-71
2021/03/30 07:38:21;;;;;;;10.57;6.03;;;;;;;;;;5115753;27;20457;-71
2021/03/30 07:40:49;;;;;;;9.97;5.73;;;;;;;;;;5115278;27;20455;-71
2021/03/30 07:43:22;;;;;;;10.50;6.30;;;;;;;;;;5108121;27;20585;-71
2021/03/30 07:45:49;;;;;;;9.73;6.10;;;;;;;;;;5097363;28;20483;-72
2021/03/30 07:48:18;;;;;;;10.90;7.27;;;;;;;;;;5116578;27;20474;-71
2021/03/30 07:50:49;;;;;;;9.97;5.70;;;;;;;;;;5103110;28;20457;-72
2021/03/30 07:53:35;;;;;;;7.10;4.60;;;;;;;;;;5111723;27;20524;-71
2021/03/30 07:56:05;;;;;;;10.10;6.63;;;;;;;;;;5115630;27;20451;-72
2021/03/30 07:58:43;;;;;;;11.30;6.87;;;;;;;;;;5099320;28;20453;-73
2021/03/30 08:01:11;;;;;;;10.77;5.03;;;;;;;;;;5114893;27;20733;-72
2021/03/30 08:03:38;;;;;;;8.47;6.43;;;;;;;;;;5116357;27;20451;-72
2021/03/30 08:06:09;;;;;;;12.37;5.60;;;;;;;;;;5116358;27;20470;-72
2021/03/30 08:08:47;;;;;;;9.20;5.63;;;;;;;;;;5102959;27;20467;-71
2021/03/30 08:11:18;;;;;;;8.67;5.70;;;;;;;;;;5095758;28;20440;-71
2021/03/30 08:13:58;;;;;;;13.90;7.83;;;;;;;;;;5103692;27;20463;-71
2021/03/30 08:16:38;;;;;;;10.37;6.30;;;;;;;;;;5099299;28;20460;-72
2021/03/30 08:19:10;;;;;;;11.53;6.93;;;;;;;;;;5108177;28;20458;-72
2021/03/30 08:21:56;;;;;;;10.53;6.37;;;;;;;;;;5101375;28;20455;-71
2021/03/30 08:24:26;;;;;;;10.30;6.57;;;;;;;;;;5100896;27;20479;-71
2021/03/30 08:26:58;;;;;;;13.13;6.70;;;;;;;;;;5104938;27;21167;-71
2021/03/30 08:29:36;;;;;;;9.07;5.70;;;;;;;;;;5095059;28;20451;-71
2021/03/30 08:32:08;;;;;;;12.63;7.20;;;;;;;;;;5101655;28;20490;-71
2021/03/30 08:34:45;;;;;;;8.93;6.03;;;;;;;;;;5113313;28;20526;-72
2021/03/30 08:37:13;;;;;;;10.90;6.60;;;;;;;;;;5115396;27;20451;-72
2021/03/30 08:39:41;;;;;;;11.80;6.70;;;;;;;;;;5115607;27;20451;-72
2021/03/30 08:42:24;;;;;;;10.63;7.07;;;;;;;;;;5115548;27;20455;-72
2021/03/30 08:47:36;;;;;;;10.37;6.67;;;;;;;;;;5130216;27;20455;-72
2021/03/30 08:50:19;;;;;;;9.40;5.80;;;;;;;;;;5114657;28;20522;-71
2021/03/30 08:52:49;;;;;;;9.10;6.10;;;;;;;;;;5126582;28;20458;-72
2021/03/30 08:55:16;;;;;;;14.33;7.27;;;;;;;;;;5108213;27;20507;-72
2021/03/30 08:57:50;;;;;;;12.40;6.50;;;;;;;;;;5110681;28;20455;-71
2021/03/30 09:00:21;;;;;;;15.83;6.13;;;;;;;;;;5115455;27;20474;-71
2021/03/30 09:02:58;;;;;;;10.93;5.50;;;;;;;;;;5113881;27;20511;-71
2021/03/30 09:05:26;;;;;;;8.77;6.43;;;;;;;;;;5114786;27;20648;-71
2021/03/30 09:07:53;;;;;;;14.77;6.37;;;;;;;;;;5113588;27;20702;-71
2021/03/30 09:10:21;;;;;;;10.63;6.40;;;;;;;;;;5115418;27;20543;-72
2021/03/30 09:12:49;;;;;;;7.93;5.60;;;;;;;;;;5115193;28;20550;-71
2021/03/30 09:15:17;;;;;;;10.83;5.93;;;;;;;;;;5115155;27;20482;-70
2021/03/30 09:18:00;;;;;;;15.50;6.10;;;;;;;;;;5114410;27;20455;-70
2021/03/30 09:20:28;;;;;;;9.50;5.23;;;;;;;;;;5094626;28;20472;-71
2021/03/30 09:22:57;;;;;;;12.90;6.03;;;;;;;;;;5099915;28;20460;-71
2021/03/30 09:25:34;;;;;;;8.67;5.50;;;;;;;;;;5102436;28;20505;-71
2021/03/30 09:28:02;;;;;;;9.10;6.67;;;;;;;;;;5098854;28;20530;-72
2021/03/30 09:30:29;;;;;;;11.17;5.33;;;;;;;;;;5100480;28;20540;-71
2021/03/30 09:33:00;;;;;;;7.80;5.47;;;;;;;;;;5116627;27;20451;-72
2021/03/30 09:35:29;;;;;;;10.33;5.30;;;;;;;;;;5120001;27;20557;-71
2021/03/30 09:38:03;;;;;;;12.33;4.93;;;;;;;;;;5136682;27;20531;-72
2021/03/30 09:40:36;;;;;;;11.50;5.70;;;;;;;;;;5117647;28;20545;-71
2021/03/30 09:43:10;;;;;;;10.97;5.73;;;;;;;;;;5104116;28;20452;-72
2021/03/30 09:45:39;;;;;;;8.37;5.00;;;;;;;;;;5098366;28;20521;-71
2021/03/30 09:48:08;;;;;;;7.67;5.80;;;;;;;;;;5099672;27;20485;-74
2021/03/30 09:50:36;;;;;;;9.63;5.00;;;;;;;;;;5100020;27;20460;-73
2021/03/30 09:53:04;;;;;;;8.53;5.53;;;;;;;;;;5112739;27;20481;-73
2021/03/30 09:55:35;;;;;;;9.20;5.20;;;;;;;;;;5097800;28;20543;-74
2021/03/30 09:58:03;;;;;;;9.07;4.70;;;;;;;;;;5112194;27;20462;-73
2021/03/30 10:00:39;;;;;;;6.27;4.17;;;;;;;;;;5116793;27;20455;-73
2021/03/30 10:03:09;;;;;;;8.17;4.50;;;;;;;;;;5101208;27;20460;-73
2021/03/30 10:05:41;;;;;;;8.07;4.37;;;;;;;;;;5096519;28;20942;-74
2021/03/30 10:08:41;;;;;;;7.53;4.40;;;;;;;;;;5105657;27;21344;-74
2021/03/30 10:11:16;;;;;;;9.23;4.53;;;;;;;;;;5107482;28;20470;-71
2021/03/30 10:13:44;;;;;;;5.30;3.83;;;;;;;;;;5125727;27;20454;-72
2021/03/30 10:16:16;;;;;;;8.13;5.77;;;;;;;;;;5125321;27;20897;-74
2021/03/30 10:18:52;;;;;;;10.33;3.93;;;;;;;;;;5114676;28;20884;-74
2021/03/30 10:21:21;;;;;;;6.73;3.63;;;;;;;;;;5126083;27;20511;-73
2021/03/30 10:24:00;;;;;;;6.90;3.50;;;;;;;;;;5119597;27;20443;-73
2021/03/30 10:26:31;;;;;;;6.77;3.33;;;;;;;;;;5126204;27;20869;-72
2021/03/30 10:29:04;;;;;;;7.97;3.10;;;;;;;;;;5125253;27;20458;-73
2021/03/30 10:31:42;;;;;;;6.50;3.60;;;;;;;;;;5120673;27;20875;-74
2021/03/30 10:34:25;;;;;;;7.60;4.73;;;;;;;;;;5103473;27;20467;-74
2021/03/30 10:36:56;;;;;;;5.73;3.90;;;;;;;;;;5096201;28;20464;-71
2021/03/30 10:39:29;;;;;;;6.63;4.50;;;;;;;;;;5098295;28;20494;-72
2021/03/30 10:42:07;;;;;;;5.40;3.50;;;;;;;;;;5097952;28;20453;-73
2021/03/30 10:44:42;;;;;;;4.60;3.20;;;;;;;;;;5095914;28;20578;-73
2021/03/30 10:47:18;;;;;;;7.40;3.10;;;;;;;;;;5097864;28;20555;-72
2021/03/30 10:49:45;;;;;;;7.00;3.80;;;;;;;;;;5113925;27;20450;-73
2021/03/30 10:52:23;;;;;;;5.87;3.83;;;;;;;;;;5112499;27;20890;-71
2021/03/30 10:54:54;;;;;;;9.03;3.70;;;;;;;;;;5111081;27;20889;-73
2021/03/30 10:57:25;;;;;;;5.40;3.53;;;;;;;;;;5099004;27;20465;-73
2021/03/30 10:59:52;;;;;;;8.70;3.60;;;;;;;;;;5112281;28;20447;-73
2021/03/30 11:02:21;;;;;;;6.40;3.77;;;;;;;;;;5116028;28;20455;-72
2021/03/30 11:04:48;;;;;;;6.03;3.70;;;;;;;;;;5098360;28;20560;-72
2021/03/30 11:07:16;;;;;;;6.23;3.20;;;;;;;;;;5099882;28;20458;-73
2021/03/30 11:09:45;;;;;;;6.37;3.10;;;;;;;;;;5105671;27;20467;-73
2021/03/30 11:12:21;;;;;;;5.20;2.90;;;;;;;;;;5095638;28;20459;-73
2021/03/30 11:14:53;;;;;;;7.83;3.80;;;;;;;;;;5096302;28;20459;-71
2021/03/30 11:17:21;;;;;;;6.10;2.77;;;;;;;;;;5096421;28;20859;-73
2021/03/30 11:19:49;;;;;;;5.83;3.20;;;;;;;;;;5101161;28;20516;-73
2021/03/30 11:22:16;;;;;;;3.60;2.53;;;;;;;;;;5112422;27;20871;-71
2021/03/30 11:24:44;;;;;;;6.17;2.77;;;;;;;;;;5100489;28;20494;-73
2021/03/30 11:27:11;;;;;;;3.70;2.77;;;;;;;;;;5095737;28;20478;-72
2021/03/30 11:29:47;;;;;;;5.37;2.80;;;;;;;;;;5095958;28;20471;-73
2021/03/30 11:32:30;;;;;;;6.20;2.77;;;;;;;;;;5096159;28;20444;-73
2021/03/30 11:35:15;;;;;;;7.03;2.40;;;;;;;;;;5092269;28;20541;-73
2021/03/30 11:37:50;;;;;;;5.50;1.87;;;;;;;;;;5094508;28;20456;-72
2021/03/30 11:40:18;;;;;;;4.37;1.83;;;;;;;;;;5093676;28;20646;-72
2021/03/30 11:42:46;;;;;;;6.37;2.87;;;;;;;;;;5094768;28;20563;-73
2021/03/30 11:45:15;;;;;;;3.60;2.20;;;;;;;;;;5103670;27;20548;-72
2021/03/30 11:47:42;;;;;;;6.13;4.20;;;;;;;;;;5103375;27;20459;-73
2021/03/30 11:50:20;;;;;;;2.50;1.63;;;;;;;;;;5110306;27;20746;-73
2021/03/30 11:52:54;;;;;;;6.77;1.80;;;;;;;;;;5103818;28;20459;-73
2021/03/30 11:55:24;;;;;;;5.57;1.83;;;;;;;;;;5115401;27;20854;-73
2021/03/30 11:57:52;;;;;;;3.63;1.20;;;;;;;;;;5116275;27;20527;-72
2021/03/30 12:00:22;;;;;;;5.23;1.57;;;;;;;;;;5101652;27;20538;-73
2021/03/30 12:02:54;;;;;;;3.10;1.93;;;;;;;;;;5105686;28;20444;-73
2021/03/30 12:05:23;;;;;;;5.83;1.47;;;;;;;;;;5116654;28;20484;-71
2021/03/30 12:07:51;;;;;;;2.60;2.20;;;;;;;;;;5115998;28;20459;-71
2021/03/30 12:10:21;;;;;;;5.10;1.63;;;;;;;;;;5115970;28;20515;-72
2021/03/30 12:12:49;;;;;;;2.90;1.73;;;;;;;;;;5116085;28;20477;-72
2021/03/30 12:15:17;;;;;;;2.27;1.50;;;;;;;;;;5111417;28;20463;-72
2021/03/30 12:17:44;;;;;;;4.43;1.80;;;;;;;;;;5096342;28;20760;-72
2021/03/30 12:20:14;;;;;;;3.57;2.00;;;;;;;;;;5110450;27;20471;-72
2021/03/30 12:22:50;;;;;;;3.40;1.93;;;;;;;;;;5099903;28;20469;-72
2021/03/30 12:25:17;;;;;;;3.43;1.60;;;;;;;;;;5113027;28;20482;-72
2021/03/30 12:27:45;;;;;;;3.90;1.80;;;;;;;;;;5115289;28;20449;-72
2021/03/30 12:30:12;;;;;;;4.40;1.90;;;;;;;;;;5115220;28;20531;-72
2021/03/30 12:32:41;;;;;;;4.30;1.90;;;;;;;;;;5113491;28;20439;-72
2021/03/30 12:35:09;;;;;;;3.60;1.90;;;;;;;;;;5113690;28;20475;-72
2021/03/30 12:37:36;;;;;;;6.30;1.90;;;;;;;;;;5114236;28;20450;-71
2021/03/30 12:40:05;;;;;;;3.40;2.10;;;;;;;;;;5112160;28;20466;-71
2021/03/30 12:42:35;;;;;;;11.20;2.10;;;;;;;;;;5113195;28;20467;-73
2021/03/30 12:45:03;;;;;;;5.90;1.70;;;;;;;;;;5112391;28;20903;-73
2021/03/30 12:47:33;;;;;;;5.93;1.97;;;;;;;;;;5112371;28;20463;-73
2021/03/30 12:50:02;;;;;;;3.10;1.33;;;;;;;;;;5116080;27;20995;-73
2021/03/30 12:52:31;;;;;;;2.83;1.53;;;;;;;;;;5116008;27;20453;-73
2021/03/30 12:55:16;;;;;;;3.90;1.83;;;;;;;;;;5116215;27;20489;-73
2021/03/30 12:57:43;;;;;;;3.90;1.90;;;;;;;;;;5117500;27;20562;-72
2021/03/30 13:00:11;;;;;;;6.13;2.30;;;;;;;;;;5116958;27;20438;-72
2021/03/30 13:02:59;;;;;;;3.33;2.07;;;;;;;;;;5099836;28;20466;-73
2021/03/30 13:05:38;;;;;;;7.20;2.73;;;;;;;;;;5118303;27;20548;-73
2021/03/30 13:08:06;;;;;;;5.83;2.40;;;;;;;;;;5118372;27;20538;-72
2021/03/30 13:10:34;;;;;;;5.43;2.90;;;;;;;;;;5118607;27;20451;-73
2021/03/30 13:13:01;;;;;;;5.67;2.57;;;;;;;;;;5117556;27;20482;-72
2021/03/30 13:15:28;;;;;;;6.70;2.33;;;;;;;;;;5114774;27;20435;-72
2021/03/30 13:17:56;;;;;;;4.53;2.20;;;;;;;;;;5118583;27;20462;-72
2021/03/30 13:20:24;;;;;;;7.47;2.20;;;;;;;;;;5097827;28;20443;-72
2021/03/30 13:22:53;;;;;;;4.20;2.47;;;;;;;;;;5097591;28;20490;-72
2021/03/30 13:25:29;;;;;;;6.47;3.40;;;;;;;;;;5096663;28;20556;-73
2021/03/30 13:27:58;;;;;;;7.30;2.70;;;;;;;;;;5096322;28;20455;-73
2021/03/30 13:30:28;;;;;;;9.40;2.30;;;;;;;;;;5105847;28;20512;-72
2021/03/30 13:33:09;;;;;;;7.23;2.60;;;;;;;;;;5118424;27;21419;-72
2021/03/30 13:35:39;;;;;;;8.03;3.00;;;;;;;;;;5113686;27;20455;-72
2021/03/30 13:38:06;;;;;;;6.60;3.40;;;;;;;;;;5117685;27;20473;-72
2021/03/30 13:40:33;;;;;;;4.37;2.63;;;;;;;;;;5118030;27;20915;-72
2021/03/30 13:43:02;;;;;;;8.97;4.20;;;;;;;;;;5117657;27;20493;-71
2021/03/30 13:45:32;;;;;;;7.80;2.90;;;;;;;;;;5117549;27;20522;-72
2021/03/30 13:48:03;;;;;;;7.30;3.20;;;;;;;;;;5116728;27;20459;-71
2021/03/30 13:50:34;;;;;;;6.50;2.83;;;;;;;;;;5097831;28;20855;-72
2021/03/30 13:53:01;;;;;;;5.50;2.70;;;;;;;;;;5098083;28;21020;-72
2021/03/30 13:55:35;;;;;;;5.23;2.90;;;;;;;;;;5097787;28;20549;-72
2021/03/30 13:58:21;;;;;;;7.10;3.87;;;;;;;;;;5097249;28;20440;-73
2021/03/30 14:00:55;;;;;;;8.80;3.77;;;;;;;;;;5099198;28;21078;-72
2021/03/30 14:03:25;;;;;;;6.33;3.60;;;;;;;;;;5114704;27;20451;-72
2021/03/30 14:06:15;;;;;;;7.93;3.00;;;;;;;;;;5117035;27;20553;-71
2021/03/30 14:08:46;;;;;;;6.33;2.90;;;;;;;;;;5114634;27;20928;-71
2021/03/30 14:11:16;;;;;;;8.17;4.10;;;;;;;;;;5115912;27;20490;-71
2021/03/30 14:13:46;;;;;;;6.13;3.93;;;;;;;;;;5115831;27;20872;-72
2021/03/30 14:16:16;;;;;;;6.40;3.50;;;;;;;;;;5116080;27;20490;-72
2021/03/30 14:18:55;;;;;;;10.93;4.80;;;;;;;;;;5114040;27;20535;-72
2021/03/30 14:21:38;;;;;;;5.00;3.30;;;;;;;;;;5106638;28;20455;-72
2021/03/30 14:24:16;;;;;;;7.17;3.30;;;;;;;;;;5096402;28;20489;-71
2021/03/30 14:26:44;;;;;;;7.40;3.03;;;;;;;;;;5096963;28;20477;-73
2021/03/30 14:29:15;;;;;;;6.30;3.60;;;;;;;;;;5100584;28;20466;-72
2021/03/30 14:31:45;;;;;;;5.73;3.90;;;;;;;;;;5096885;28;20470;-73
2021/03/30 14:34:25;;;;;;;7.60;3.00;;;;;;;;;;5096786;28;20509;-72
2021/03/30 14:36:55;;;;;;;4.87;3.80;;;;;;;;;;5114966;27;20451;-73
2021/03/30 14:39:24;;;;;;;6.73;3.50;;;;;;;;;;5115928;28;20541;-73
2021/03/30 14:41:53;;;;;;;7.10;3.73;;;;;;;;;;5114396;28;20447;-72
2021/03/30 14:44:29;;;;;;;5.83;4.00;;;;;;;;;;5116904;27;20501;-72
2021/03/30 14:47:13;;;;;;;6.17;3.20;;;;;;;;;;5117066;27;20455;-72
2021/03/30 14:52:44;;;;;;;5.17;2.80;;;;;;;;;;5107165;27;20446;-72
2021/03/30 14:55:17;;;;;;;9.43;5.07;;;;;;;;;;5104014;28;20467;-72
2021/03/30 14:57:54;;;;;;;5.60;3.40;;;;;;;;;;5108932;27;20739;-73